Time;durP1;ratioP1;P1;durP2;ratioP2;P2;SDS_P1;SDS_P2;PMS_P1;PMS_P2;Temp;Humidity;BMP_temperature;BMP_pressure;BME280_temperature;BME280_humidity;BME280_pressure;Samples;Min_cycle;Max_cycle;Signal;HPM_P1;HPM_P2
2022/04/21 00:00:29;;;;;;;24.35;17.58;;;;;;;7.69;79.34;99932.56;5071774;28;20024;-78
2022/04/21 00:02:54;;;;;;;26.58;18.75;;;;;;;7.66;80.49;99949.69;5070044;28;20107;-75
2022/04/21 00:05:20;;;;;;;24.17;18.60;;;;;;;7.65;80.95;99948.91;5070418;28;20021;-77
2022/04/21 00:07:48;;;;;;;26.83;19.58;;;;;;;7.72;80.59;99945.78;5070792;28;20028;-76
2022/04/21 00:10:14;;;;;;;28.42;19.50;;;;;;;7.78;80.60;99948.81;5070632;28;20111;-76
2022/04/21 00:12:39;;;;;;;31.63;20.40;;;;;;;7.75;80.78;99941.22;5054086;28;20024;-77
2022/04/21 00:15:05;;;;;;;30.55;21.58;;;;;;;7.75;80.90;99950.50;5072184;28;20021;-76
2022/04/21 00:17:31;;;;;;;31.85;20.35;;;;;;;7.83;80.69;99951.03;5073694;28;20071;-78
2022/04/21 00:19:56;;;;;;;33.72;21.52;;;;;;;7.84;80.11;99941.28;5073283;28;20466;-77
2022/04/21 00:25:06;;;;;;;32.40;19.98;;;;;;;7.78;80.85;99943.13;5073662;28;20396;-77
2022/04/21 00:27:39;;;;;;;31.00;20.98;;;;;;;7.81;80.82;99945.81;5071949;28;20041;-77
2022/04/21 00:30:06;;;;;;;34.78;21.27;;;;;;;7.81;80.45;99945.81;5073516;28;20127;-77
2022/04/21 00:32:33;;;;;;;32.80;22.73;;;;;;;7.73;80.65;99927.53;5073063;28;20475;-77
2022/04/21 00:34:58;;;;;;;35.85;22.20;;;;;;;7.79;80.36;99936.22;5055260;28;20036;-76
2022/04/21 00:37:24;;;;;;;39.95;23.25;;;;;;;7.80;80.61;99937.78;5071878;28;20020;-76
2022/04/21 00:39:50;;;;;;;35.70;23.65;;;;;;;7.76;81.02;99931.47;5073930;28;20097;-76
2022/04/21 00:42:15;;;;;;;40.05;25.67;;;;;;;7.87;80.57;99937.47;5077344;28;20021;-75
2022/04/21 00:44:41;;;;;;;36.38;23.60;;;;;;;7.82;79.99;99935.25;5077399;28;20027;-77
2022/04/21 00:47:07;;;;;;;36.90;25.00;;;;;;;7.86;80.51;99935.09;5075773;28;20107;-76
2022/04/21 00:49:32;;;;;;;37.05;24.17;;;;;;;7.87;80.66;99943.16;5075822;28;20025;-77
2022/04/21 00:51:59;;;;;;;36.42;23.80;;;;;;;7.90;80.33;99939.38;5076933;28;20025;-76
2022/04/21 00:54:24;;;;;;;37.80;24.02;;;;;;;7.90;80.24;99935.75;5075659;28;20025;-78
2022/04/21 00:56:50;;;;;;;42.05;24.58;;;;;;;7.89;80.28;99934.19;5075660;28;20026;-76
2022/04/21 00:59:16;;;;;;;34.92;23.38;;;;;;;7.79;79.91;99925.63;5075752;28;20048;-76
2022/04/21 01:04:25;;;;;;;34.95;21.77;;;;;;;7.82;80.58;99926.75;5076059;28;20500;-77
2022/04/21 01:06:55;;;;;;;36.13;21.80;;;;;;;7.81;80.46;99925.97;5075377;28;20052;-77
2022/04/21 01:09:20;;;;;;;37.05;21.67;;;;;;;7.82;80.71;99929.59;5075730;28;20020;-76
2022/04/21 01:11:49;;;;;;;32.42;22.08;;;;;;;7.81;80.67;99925.19;5075154;28;20025;-76
2022/04/21 01:14:15;;;;;;;36.22;23.25;;;;;;;7.76;80.91;99934.28;5075169;28;20024;-76
2022/04/21 01:16:40;;;;;;;38.47;21.55;;;;;;;7.79;80.85;99922.03;5076693;28;20025;-76
2022/04/21 01:19:06;;;;;;;35.45;22.67;;;;;;;7.74;81.03;99923.44;5076635;28;20032;-76
2022/04/21 01:21:31;;;;;;;33.63;21.73;;;;;;;7.74;81.06;99920.63;5076363;28;20400;-76
2022/04/21 01:23:56;;;;;;;32.08;22.33;;;;;;;7.82;80.65;99921.09;5075121;28;20525;-77
2022/04/21 01:26:22;;;;;;;38.58;22.35;;;;;;;7.86;80.33;99915.25;5076291;28;20050;-77
2022/04/21 01:28:49;;;;;;;34.28;21.67;;;;;;;7.83;80.13;99917.00;5074606;28;20174;-77
2022/04/21 01:31:21;;;;;;;38.70;21.33;;;;;;;7.76;80.74;99909.56;5058212;28;20066;-77
2022/04/21 01:33:47;;;;;;;36.38;22.63;;;;;;;7.78;80.48;99917.63;5074976;28;20496;-77
2022/04/21 01:36:12;;;;;;;32.85;21.45;;;;;;;7.83;80.16;99914.16;5081648;28;20032;-76
2022/04/21 01:41:21;;;;;;;34.08;22.30;;;;;;;7.82;80.42;99910.53;5095341;28;20396;-78
2022/04/21 01:43:47;;;;;;;31.98;21.60;;;;;;;7.82;80.84;99910.53;5075098;28;20103;-77
2022/04/21 01:46:12;;;;;;;33.17;21.25;;;;;;;7.92;80.64;99924.72;5067336;28;20481;-77
2022/04/21 01:48:38;;;;;;;33.58;22.20;;;;;;;7.96;80.11;99911.19;5077975;28;20074;-77
2022/04/21 01:51:03;;;;;;;32.38;20.92;;;;;;;8.01;80.05;99907.72;5097246;28;20016;-77
2022/04/21 01:53:29;;;;;;;35.70;21.13;;;;;;;8.02;79.80;99910.09;5098100;28;20031;-77
2022/04/21 01:55:54;;;;;;;33.90;20.40;;;;;;;8.01;79.76;99902.03;5098012;28;20460;-76
2022/04/21 01:58:20;;;;;;;32.28;20.48;;;;;;;7.89;79.90;99905.84;5098371;28;20024;-76
2022/04/21 02:00:45;;;;;;;33.85;23.23;;;;;;;7.81;80.12;99903.28;5116300;28;20480;-78
2022/04/21 02:03:11;;;;;;;31.30;20.63;;;;;;;7.87;80.24;99897.78;5081054;28;20015;-80
2022/04/21 02:05:36;;;;;;;36.50;21.38;;;;;;;7.90;79.98;99896.03;5097944;28;20054;-79
2022/04/21 02:08:02;;;;;;;32.85;20.50;;;;;;;7.96;80.04;99894.16;5097839;28;20384;-79
2022/04/21 02:10:28;;;;;;;32.88;21.83;;;;;;;7.96;79.64;99908.34;5097961;28;20099;-79
2022/04/21 02:12:53;;;;;;;31.60;20.95;;;;;;;8.04;79.49;99901.13;5115962;28;20051;-79
2022/04/21 02:15:18;;;;;;;32.83;21.40;;;;;;;8.09;79.68;99911.84;5080806;28;20031;-79
2022/04/21 02:17:44;;;;;;;33.45;22.33;;;;;;;8.09;79.36;99909.75;5077329;28;20035;-80
2022/04/21 02:20:12;;;;;;;32.65;21.75;;;;;;;8.08;79.60;99905.38;5077530;28;20016;-79
2022/04/21 02:22:37;;;;;;;36.42;22.10;;;;;;;8.13;79.05;99910.41;5077589;28;20380;-79
2022/04/21 02:25:04;;;;;;;35.25;21.75;;;;;;;8.11;79.38;99910.09;5095357;28;20571;-79
2022/04/21 02:27:29;;;;;;;36.75;23.48;;;;;;;8.07;79.39;99906.63;5060345;28;20524;-79
2022/04/21 02:29:55;;;;;;;34.50;22.75;;;;;;;8.10;78.96;99917.03;5077073;28;20184;-79
2022/04/21 02:32:21;;;;;;;34.75;21.77;;;;;;;8.11;79.31;99921.44;5095155;28;20043;-79
2022/04/21 02:34:46;;;;;;;36.25;23.38;;;;;;;8.12;78.63;99911.69;5077226;28;20122;-79
2022/04/21 02:37:12;;;;;;;34.33;23.02;;;;;;;8.21;78.60;99922.22;5093912;28;20030;-80
2022/04/21 02:39:37;;;;;;;37.63;23.00;;;;;;;8.22;78.78;99920.97;5060267;28;20032;-80
2022/04/21 02:42:03;;;;;;;33.35;22.40;;;;;;;8.12;78.65;99910.88;5076982;28;20449;-80
2022/04/21 02:44:28;;;;;;;34.92;23.10;;;;;;;8.14;78.63;99911.22;5095046;28;20028;-79
2022/04/21 02:46:53;;;;;;;33.53;21.42;;;;;;;8.11;79.26;99903.63;5094801;28;20484;-80
2022/04/21 02:49:19;;;;;;;34.30;22.70;;;;;;;8.22;79.18;99918.94;5094876;28;20055;-79
2022/04/21 02:51:45;;;;;;;32.90;22.05;;;;;;;8.24;78.94;99915.59;5076781;28;20020;-79
2022/04/21 02:59:40;;;;;;;33.75;21.23;;;;;;;8.08;78.13;99896.06;5079931;28;20034;-80
2022/04/21 03:02:06;;;;;;;36.90;22.52;;;;;;;8.25;78.10;99925.69;5076501;28;20098;-80
2022/04/21 03:04:31;;;;;;;36.15;21.65;;;;;;;8.28;77.98;99919.09;5076532;28;20075;-79
2022/04/21 03:06:56;;;;;;;37.08;23.08;;;;;;;8.30;78.27;99925.09;5060103;28;20020;-80
2022/04/21 03:09:21;;;;;;;33.00;22.92;;;;;;;8.24;78.02;99916.38;5094170;28;20047;-78
2022/04/21 03:11:48;;;;;;;33.97;21.20;;;;;;;8.30;77.92;99919.41;5078490;28;20492;-78
2022/04/21 03:14:14;;;;;;;32.33;21.83;;;;;;;8.35;78.14;99918.78;5080156;28;20026;-78
2022/04/21 03:16:39;;;;;;;29.63;20.67;;;;;;;8.34;77.61;99928.56;5076925;28;20118;-80
2022/04/21 03:19:05;;;;;;;32.40;22.52;;;;;;;8.31;78.31;99914.53;5076165;28;20035;-79
2022/04/21 03:24:20;;;;;;;31.63;20.27;;;;;;;8.30;78.13;99916.59;5079533;28;20512;-80
2022/04/21 03:26:49;;;;;;;31.38;22.13;;;;;;;8.27;77.67;99913.88;5077046;28;20056;-80
2022/04/21 03:29:15;;;;;;;32.95;21.10;;;;;;;8.26;77.51;99918.75;5076302;28;20024;-80
2022/04/21 03:31:44;;;;;;;32.90;21.25;;;;;;;8.24;77.33;99910.72;5075898;28;20027;-80
2022/04/21 03:34:12;;;;;;;32.75;21.05;;;;;;;8.30;77.57;99936.44;5076719;28;20076;-81
2022/04/21 03:36:37;;;;;;;33.35;21.50;;;;;;;8.35;77.15;99923.69;5095946;28;20027;-81
2022/04/21 03:39:03;;;;;;;33.15;21.95;;;;;;;8.36;77.42;99923.22;5078789;28;20395;-81
2022/04/21 03:41:28;;;;;;;37.50;22.75;;;;;;;8.23;77.57;99922.56;5094742;28;20480;-80
2022/04/21 03:43:54;;;;;;;34.15;22.13;;;;;;;8.20;77.31;99923.47;5094451;28;20016;-79
2022/04/21 03:46:19;;;;;;;36.22;22.83;;;;;;;8.22;77.73;99920.97;5092952;28;20094;-80
2022/04/21 03:48:44;;;;;;;34.75;22.77;;;;;;;8.20;77.74;99918.59;5094669;28;20078;-80
2022/04/21 03:51:10;;;;;;;37.17;23.40;;;;;;;8.29;77.66;99920.66;5076515;28;20024;-80
2022/04/21 03:53:35;;;;;;;31.70;21.58;;;;;;;8.23;78.09;99909.16;5093881;28;20016;-79
2022/04/21 03:56:00;;;;;;;33.40;22.10;;;;;;;8.32;77.66;99921.78;5075738;28;20093;-80
2022/04/21 03:58:33;;;;;;;37.30;22.67;;;;;;;8.27;77.64;99911.84;5075174;28;20412;-80
2022/04/21 04:00:58;;;;;;;32.85;21.88;;;;;;;8.29;77.60;99929.16;5091433;28;20361;-79
2022/04/21 04:03:24;;;;;;;36.67;22.77;;;;;;;8.32;77.62;99925.41;5090284;28;20023;-79
2022/04/21 04:05:49;;;;;;;33.00;21.98;;;;;;;8.38;77.76;99929.22;5073786;28;20096;-79
2022/04/21 04:11:00;;;;;;;35.85;22.90;;;;;;;8.33;77.75;99912.81;5092093;28;20039;-79
2022/04/21 04:13:26;;;;;;;38.88;24.67;;;;;;;8.37;77.73;99919.13;5056975;28;20069;-80
2022/04/21 04:15:52;;;;;;;34.42;22.13;;;;;;;8.43;77.69;99922.91;5073562;28;20032;-80
2022/04/21 04:18:28;;;;;;;37.92;25.75;;;;;;;8.45;77.29;99925.25;5078566;28;20030;-80
2022/04/21 04:20:55;;;;;;;38.67;23.67;;;;;;;8.48;77.46;99922.28;5096047;28;20488;-80
2022/04/21 04:23:21;;;;;;;35.13;22.90;;;;;;;8.52;77.15;99922.09;5095663;28;20035;-80
2022/04/21 04:25:47;;;;;;;39.15;23.35;;;;;;;8.54;77.56;99922.41;5113774;28;20077;-81
2022/04/21 04:28:12;;;;;;;37.22;22.92;;;;;;;8.56;77.73;99917.03;5061861;28;20167;-80
2022/04/21 04:30:39;;;;;;;35.53;23.92;;;;;;;8.62;77.12;99918.78;5095087;28;20027;-80
2022/04/21 04:33:14;;;;;;;45.20;23.45;;;;;;;8.64;77.21;99919.06;5114123;28;20079;-79
2022/04/21 04:35:40;;;;;;;43.22;23.52;;;;;;;8.65;77.04;99917.81;5113747;28;20492;-81
2022/04/21 04:38:06;;;;;;;48.50;24.60;;;;;;;8.75;76.75;99929.16;5113574;28;20061;-79
2022/04/21 04:40:31;;;;;;;53.03;28.05;;;;;;;8.80;76.80;99923.63;5095166;28;20464;-80
2022/04/21 04:42:57;;;;;;;50.38;25.77;;;;;;;8.83;76.78;99919.06;5113581;28;20023;-81
2022/04/21 04:48:16;;;;;;;49.67;24.98;;;;;;;8.93;76.69;99927.06;5097998;28;20058;-77
2022/04/21 04:50:42;;;;;;;51.20;25.17;;;;;;;8.94;76.66;99928.63;5063068;28;20024;-77
2022/04/21 04:53:10;;;;;;;60.10;26.52;;;;;;;8.99;76.31;99928.00;5092015;28;20035;-77
2022/04/21 04:55:36;;;;;;;63.40;26.05;;;;;;;8.96;76.57;99923.28;5080665;28;20031;-75
2022/04/21 04:58:01;;;;;;;59.13;26.23;;;;;;;9.04;76.98;99930.19;5114694;28;20024;-76
2022/04/21 05:00:29;;;;;;;57.80;27.17;;;;;;;9.05;76.34;99928.16;5096213;28;20020;-76
2022/04/21 05:02:56;;;;;;;54.22;26.42;;;;;;;9.06;76.86;99927.66;5095862;28;20024;-80
2022/04/21 05:05:23;;;;;;;53.22;27.30;;;;;;;9.02;76.65;99929.09;5112657;28;20495;-80
2022/04/21 05:07:50;;;;;;;51.83;26.85;;;;;;;9.02;76.47;99929.09;5078501;28;20035;-81
2022/04/21 05:10:18;;;;;;;55.90;26.60;;;;;;;9.06;76.38;99936.19;5095052;28;20034;-81
2022/04/21 05:12:44;;;;;;;54.97;27.25;;;;;;;9.10;76.50;99936.81;5113199;28;20020;-79
2022/04/21 05:15:09;;;;;;;52.00;26.23;;;;;;;9.18;75.69;99937.25;5111547;28;20185;-78
2022/04/21 05:17:37;;;;;;;60.60;27.20;;;;;;;9.24;75.65;99937.38;5094554;28;20473;-77
2022/04/21 05:20:19;;;;;;;55.90;28.13;;;;;;;9.24;75.99;99929.66;5112998;28;20098;-79
2022/04/21 05:22:47;;;;;;;59.20;29.40;;;;;;;9.31;75.95;99925.69;5095144;28;20019;-80
2022/04/21 05:25:14;;;;;;;63.92;29.33;;;;;;;9.49;76.04;99934.13;5095080;28;20020;-78
2022/04/21 05:27:41;;;;;;;62.50;27.25;;;;;;;9.59;75.59;99929.19;5116126;28;20100;-76
2022/04/21 05:32:57;;;;;;;64.97;28.65;;;;;;;9.84;74.79;99940.09;5101268;28;20038;-76
2022/04/21 05:35:23;;;;;;;65.65;29.52;;;;;;;9.80;74.08;99933.81;5098190;28;20027;-75
2022/04/21 05:37:49;;;;;;;61.88;28.98;;;;;;;9.75;74.11;99943.81;5096897;28;20028;-77
2022/04/21 05:40:15;;;;;;;61.47;30.17;;;;;;;9.80;74.50;99942.34;5081406;28;20076;-76
2022/04/21 05:42:45;;;;;;;76.50;32.72;;;;;;;9.71;74.50;99937.50;5097984;28;20027;-77
2022/04/21 05:45:12;;;;;;;75.55;33.47;;;;;;;9.63;75.18;99933.44;5098203;28;20027;-76
2022/04/21 05:47:39;;;;;;;62.53;30.08;;;;;;;9.73;75.13;99932.09;5098289;28;20528;-76
2022/04/21 05:50:05;;;;;;;68.05;30.77;;;;;;;9.70;74.90;99926.59;5097792;28;20064;-76
2022/04/21 05:52:31;;;;;;;61.95;30.70;;;;;;;9.71;74.81;99925.34;5116277;28;20446;-75
2022/04/21 05:54:57;;;;;;;71.07;30.70;;;;;;;9.78;75.27;99922.13;5097944;28;20520;-75
2022/04/21 05:57:23;;;;;;;63.30;28.10;;;;;;;9.82;74.40;99929.22;5080496;28;20075;-76
2022/04/21 05:59:48;;;;;;;71.53;28.98;;;;;;;9.76;75.34;99933.22;5097722;28;20459;-76
2022/04/21 06:02:13;;;;;;;60.38;29.05;;;;;;;9.62;75.36;99940.38;5080589;28;20015;-76
2022/04/21 06:04:39;;;;;;;49.70;24.25;;;;;;;9.62;75.54;99929.00;5116194;28;20031;-76
2022/04/21 06:07:04;;;;;;;51.10;23.85;;;;;;;9.66;74.79;99920.31;5116074;28;20027;-75
2022/04/21 06:09:30;;;;;;;45.40;22.88;;;;;;;9.88;74.82;99935.03;5080589;28;20066;-76
2022/04/21 06:11:55;;;;;;;47.38;23.95;;;;;;;9.92;74.10;99933.56;5114355;27;20034;-78
2022/04/21 06:14:20;;;;;;;53.15;23.42;;;;;;;9.93;73.56;99925.81;5080273;28;20453;-76
2022/04/21 06:16:46;;;;;;;55.90;24.45;;;;;;;10.05;74.48;99933.34;5097319;28;20024;-77
2022/04/21 06:19:11;;;;;;;50.80;23.30;;;;;;;10.15;73.87;99934.84;5097461;28;20030;-76
2022/04/21 06:21:44;;;;;;;40.20;20.77;;;;;;;10.24;73.62;99945.41;5083532;28;20042;-76
2022/04/21 06:24:10;;;;;;;48.15;24.83;;;;;;;10.26;72.95;99954.25;5089610;28;20063;-77
2022/04/21 06:26:36;;;;;;;54.50;27.45;;;;;;;10.19;72.92;99952.56;5077337;28;20067;-76
2022/04/21 06:29:02;;;;;;;75.63;30.42;;;;;;;10.20;73.08;99954.13;5076461;28;20097;-77
2022/04/21 06:31:27;;;;;;;93.82;31.10;;;;;;;10.27;72.89;99948.06;5076629;28;20047;-77
2022/04/21 06:33:54;;;;;;;57.22;26.15;;;;;;;10.43;71.96;99960.28;5076624;28;20035;-78
2022/04/21 06:36:19;;;;;;;63.75;27.48;;;;;;;10.45;72.40;99961.38;5059627;28;20055;-77
2022/04/21 06:38:45;;;;;;;55.70;26.27;;;;;;;10.52;71.75;99966.69;5075842;28;20075;-77
2022/04/21 06:41:11;;;;;;;64.13;27.63;;;;;;;10.33;71.00;99951.81;5070083;28;20024;-77
2022/04/21 06:49:08;;;;;;;45.13;24.23;;;;;;;10.56;70.89;99963.69;5117961;27;20516;-76
2022/04/21 06:51:34;;;;;;;45.55;22.58;;;;;;;10.62;70.48;99965.34;5061700;28;20045;-77
2022/04/21 06:53:59;;;;;;;46.45;21.77;;;;;;;10.74;70.61;99969.19;5102165;27;20114;-77
2022/04/21 06:56:24;;;;;;;52.22;23.30;;;;;;;10.80;69.34;99970.88;5101482;28;20073;-76
2022/04/21 06:58:50;;;;;;;45.05;21.95;;;;;;;10.89;69.18;99975.72;5079063;28;20039;-78
2022/04/21 07:01:16;;;;;;;39.03;20.48;;;;;;;10.88;69.18;99982.69;5094510;28;20441;-76
2022/04/21 07:03:41;;;;;;;42.45;22.00;;;;;;;10.83;69.06;99984.16;5093422;28;20523;-76
2022/04/21 07:06:06;;;;;;;40.60;21.73;;;;;;;10.70;69.63;99988.56;5111632;28;20516;-76
2022/04/21 07:08:34;;;;;;;44.50;21.25;;;;;;;10.72;69.91;99974.59;5076630;28;20039;-76
2022/04/21 07:11:00;;;;;;;41.55;22.20;;;;;;;10.75;69.26;99980.13;5093265;28;20038;-76
2022/04/21 07:13:27;;;;;;;42.42;20.70;;;;;;;10.78;69.40;99981.97;5076158;28;20032;-81
2022/04/21 07:15:54;;;;;;;34.33;18.20;;;;;;;10.83;68.75;99974.81;5092720;28;20046;-79
2022/04/21 07:18:19;;;;;;;39.67;18.65;;;;;;;10.96;69.18;99988.75;5076229;28;20085;-79
2022/04/21 07:20:47;;;;;;;37.08;20.42;;;;;;;10.99;68.45;99990.66;5095732;28;20032;-79
2022/04/21 07:23:12;;;;;;;35.80;20.27;;;;;;;10.81;68.89;99969.59;5080129;28;20028;-77
2022/04/21 07:25:39;;;;;;;39.38;19.85;;;;;;;10.84;68.16;99970.69;5063486;28;20031;-75
2022/04/21 07:28:05;;;;;;;34.50;19.02;;;;;;;10.93;68.34;99999.09;5114124;28;20100;-76
2022/04/21 07:30:31;;;;;;;38.58;19.60;;;;;;;10.96;68.70;100003.00;5095808;28;20422;-76
2022/04/21 07:32:57;;;;;;;31.35;17.85;;;;;;;10.93;69.07;100001.94;5113050;28;20036;-79
2022/04/21 07:35:23;;;;;;;28.52;17.75;;;;;;;10.89;68.76;100004.19;5095974;28;20027;-78
2022/04/21 07:37:48;;;;;;;31.17;19.10;;;;;;;10.81;68.54;99991.59;5096033;28;20032;-78
2022/04/21 07:40:13;;;;;;;35.75;18.70;;;;;;;10.79;69.25;99986.41;5114494;28;20085;-77
2022/04/21 07:42:39;;;;;;;37.70;19.70;;;;;;;10.95;68.25;100007.16;5095884;28;20461;-77
2022/04/21 07:45:06;;;;;;;35.47;20.48;;;;;;;11.09;67.69;100012.09;5095948;28;20057;-76
2022/04/21 07:47:31;;;;;;;32.47;18.40;;;;;;;11.00;67.91;99992.22;5096159;28;20418;-76
2022/04/21 07:49:56;;;;;;;32.08;18.77;;;;;;;11.15;68.00;99999.50;5112874;28;20460;-76
2022/04/21 07:55:15;;;;;;;40.63;19.38;;;;;;;10.97;68.15;99996.03;5077768;28;20466;-82
2022/04/21 07:57:41;;;;;;;33.47;19.48;;;;;;;10.99;67.89;99996.34;5059151;28;20074;-79
2022/04/21 08:00:07;;;;;;;35.25;18.67;;;;;;;10.93;67.61;100016.19;5058277;28;20031;-78
2022/04/21 08:02:33;;;;;;;32.13;18.50;;;;;;;10.80;68.07;100013.59;5093640;28;20031;-80
2022/04/21 08:04:59;;;;;;;39.03;20.20;;;;;;;10.86;68.97;100010.84;5075468;28;20370;-78
2022/04/21 08:07:24;;;;;;;38.33;19.73;;;;;;;10.99;68.49;100010.59;5092356;28;20074;-78
2022/04/21 08:09:49;;;;;;;41.25;22.15;;;;;;;10.88;68.64;99999.78;5095100;28;20118;-77
2022/04/21 08:12:15;;;;;;;42.67;22.60;;;;;;;10.73;69.64;100005.44;5095078;28;20027;-79
2022/04/21 08:14:40;;;;;;;42.72;23.98;;;;;;;10.57;70.60;99994.50;5095108;28;20465;-79
2022/04/21 08:17:07;;;;;;;44.17;22.88;;;;;;;10.62;69.72;100010.91;5113032;28;20110;-79
2022/04/21 08:19:33;;;;;;;46.10;22.92;;;;;;;10.67;69.69;100004.53;5094676;28;20408;-80
2022/04/21 08:21:58;;;;;;;46.05;24.33;;;;;;;10.70;70.32;100014.19;5112458;28;20024;-79
2022/04/21 08:32:44;;;;;;;41.65;21.95;;;;;;;11.37;67.96;99998.31;5092986;28;20090;-75
2022/04/21 08:35:13;;;;;;;37.72;20.70;;;;;;;11.83;67.01;100016.50;5075538;28;20052;-75
2022/04/21 08:37:42;;;;;;;37.50;20.08;;;;;;;12.24;66.30;100016.56;5114259;28;20054;-75
2022/04/21 08:40:08;;;;;;;42.25;20.10;;;;;;;12.70;64.92;100008.09;5098292;28;20072;-77
2022/04/21 08:42:39;;;;;;;46.92;20.05;;;;;;;13.21;63.21;100010.28;5098544;28;20027;-76
2022/04/21 08:45:12;;;;;;;41.22;20.13;;;;;;;13.40;61.65;100002.91;5098373;28;20498;-74
2022/04/21 08:47:40;;;;;;;55.42;27.52;;;;;;;13.68;60.69;100006.78;5116131;28;20380;-75
2022/04/21 08:50:12;;;;;;;31.92;18.40;;;;;;;13.74;61.09;100006.84;5098598;28;20100;-74
2022/04/21 08:52:38;;;;;;;32.88;17.48;;;;;;;13.32;60.49;99947.44;5133683;28;20479;-75
2022/04/21 08:55:05;;;;;;;31.35;16.70;;;;;;;13.81;59.49;100006.38;5115568;28;20027;-75
2022/04/21 08:57:32;;;;;;;31.73;18.23;;;;;;;13.89;59.72;100012.41;5133843;28;20491;-75
2022/04/21 09:00:02;;;;;;;29.40;16.67;;;;;;;13.79;59.10;100004.03;5114938;27;20031;-79
2022/04/21 09:02:43;;;;;;;30.10;17.40;;;;;;;13.82;58.27;100020.16;5120639;27;20043;-82
2022/04/21 09:05:09;;;;;;;34.28;20.58;;;;;;;13.57;59.48;100011.63;5102578;27;20058;-82
2022/04/21 09:07:44;;;;;;;36.05;20.23;;;;;;;13.35;58.52;100023.66;5137901;27;20039;-80
2022/04/21 09:10:11;;;;;;;31.58;20.08;;;;;;;13.26;60.66;100018.13;5115736;28;20055;-81
2022/04/21 09:12:42;;;;;;;30.02;19.30;;;;;;;13.22;60.60;100017.56;5117602;28;20047;-81
2022/04/21 09:15:10;;;;;;;32.67;19.58;;;;;;;13.13;61.03;100026.28;5115921;28;20110;-80
2022/04/21 09:17:41;;;;;;;33.20;18.10;;;;;;;13.17;60.35;100032.59;5099067;28;20058;-80
2022/04/21 09:20:07;;;;;;;33.57;19.60;;;;;;;13.38;61.07;100029.16;5117188;28;20063;-82
2022/04/21 09:22:33;;;;;;;30.90;18.67;;;;;;;13.52;60.45;100027.44;5099174;28;20479;-79
2022/04/21 09:24:59;;;;;;;35.47;19.55;;;;;;;13.35;60.20;100038.75;5081827;28;20035;-76
2022/04/21 09:27:37;;;;;;;30.42;19.23;;;;;;;13.36;60.03;100039.56;5080929;28;20122;-79
2022/04/21 09:30:03;;;;;;;34.47;19.15;;;;;;;13.22;60.39;100035.47;5098106;28;20023;-75
2022/04/21 09:32:28;;;;;;;31.33;18.60;;;;;;;13.29;60.61;100037.13;5098368;28;20469;-77
2022/04/21 09:34:56;;;;;;;33.03;18.20;;;;;;;13.33;60.04;100037.69;5116436;28;20042;-78
2022/04/21 09:37:22;;;;;;;36.40;18.95;;;;;;;13.28;59.65;100032.69;5116386;28;20053;-79
2022/04/21 09:39:50;;;;;;;28.60;17.83;;;;;;;13.38;60.38;100028.38;5098499;28;20024;-79
2022/04/21 09:42:27;;;;;;;31.83;17.98;;;;;;;13.43;59.45;100033.34;5116254;28;20517;-76
2022/04/21 09:47:50;;;;;;;30.80;17.15;;;;;;;13.31;60.02;100023.13;5116339;28;20046;-76
2022/04/21 09:50:16;;;;;;;30.17;18.30;;;;;;;13.52;59.54;100038.16;5080951;28;20464;-76
2022/04/21 09:52:52;;;;;;;29.70;16.60;;;;;;;13.60;58.72;100034.31;5097984;28;20456;-76
2022/04/21 09:55:23;;;;;;;34.03;18.70;;;;;;;13.67;58.83;100038.78;5080965;28;20051;-76
2022/04/21 09:58:16;;;;;;;35.25;18.77;;;;;;;13.65;58.56;100032.78;5097878;28;20103;-76
2022/04/21 10:00:42;;;;;;;36.80;20.10;;;;;;;13.63;58.79;100029.63;5093613;28;20027;-76
2022/04/21 10:03:10;;;;;;;40.70;21.98;;;;;;;13.73;58.73;100034.69;5097736;28;20357;-75
2022/04/21 10:05:39;;;;;;;32.13;20.48;;;;;;;13.78;58.20;100036.81;5064253;28;20031;-79
2022/04/21 10:08:07;;;;;;;32.67;19.05;;;;;;;13.78;57.75;100024.56;5097806;28;20034;-76
2022/04/21 10:10:33;;;;;;;30.92;18.70;;;;;;;13.78;57.79;100027.44;5116013;28;20054;-77
2022/04/21 10:13:00;;;;;;;30.00;18.83;;;;;;;13.72;57.58;100035.19;5115335;28;20026;-77
2022/04/21 10:15:27;;;;;;;30.83;19.00;;;;;;;13.61;57.94;100032.25;5115903;28;20038;-80
2022/04/21 10:17:52;;;;;;;32.35;18.08;;;;;;;13.48;58.25;100011.81;5116461;28;20035;-77
2022/04/21 10:20:21;;;;;;;36.47;18.63;;;;;;;13.52;58.30;100041.75;5097573;28;20392;-77
2022/04/21 10:22:47;;;;;;;36.42;19.13;;;;;;;13.61;58.35;100037.97;5097582;28;20034;-76
2022/04/21 10:25:13;;;;;;;34.08;19.75;;;;;;;13.79;58.33;100037.59;5097501;28;20098;-75
2022/04/21 10:27:43;;;;;;;31.05;17.98;;;;;;;13.97;56.98;100031.47;5104745;28;20035;-75
2022/04/21 10:30:15;;;;;;;30.60;17.75;;;;;;;14.34;56.36;100027.81;5113262;28;20032;-77
2022/04/21 10:32:51;;;;;;;32.65;19.73;;;;;;;14.74;55.72;100032.50;5097256;28;20022;-77
2022/04/21 10:35:34;;;;;;;28.80;16.52;;;;;;;15.15;52.37;100022.19;5135881;27;20027;-76
2022/04/21 10:38:17;;;;;;;32.42;16.90;;;;;;;15.41;52.39;100030.59;5136081;27;20076;-76
2022/04/21 10:40:58;;;;;;;29.30;16.02;;;;;;;16.13;52.12;100013.41;5118784;27;20027;-76
2022/04/21 10:44:03;;;;;;;35.50;17.13;;;;;;;16.86;49.37;100021.84;5120020;27;20027;-76
2022/04/21 10:46:30;;;;;;;24.52;15.65;;;;;;;17.35;48.78;100020.00;5135473;27;20098;-76
2022/04/21 10:48:56;;;;;;;24.73;15.23;;;;;;;17.49;47.91;100013.09;5117088;27;20021;-76
2022/04/21 10:57:32;;;;;;;23.77;14.50;;;;;;;17.73;47.31;100010.31;5111134;27;20384;-80
2022/04/21 11:00:00;;;;;;;26.08;16.48;;;;;;;17.98;46.59;100014.81;5137728;27;20027;-81
2022/04/21 11:02:38;;;;;;;25.40;14.93;;;;;;;18.11;45.29;99999.72;5137107;27;20030;-80
2022/04/21 11:05:42;;;;;;;23.13;15.82;;;;;;;18.31;44.51;100004.25;5119329;27;20027;-80
2022/04/21 11:08:11;;;;;;;22.45;15.63;;;;;;;18.53;44.58;100001.94;5101182;27;20025;-81
2022/04/21 11:10:37;;;;;;;24.48;16.15;;;;;;;18.63;44.58;100010.22;5099932;27;20375;-78
2022/04/21 11:13:03;;;;;;;22.08;16.80;;;;;;;18.58;44.99;99996.66;5135215;27;20038;-78
2022/04/21 11:15:32;;;;;;;22.75;15.20;;;;;;;18.62;43.72;99992.13;5117194;27;20034;-78
2022/04/21 11:18:09;;;;;;;26.55;16.55;;;;;;;18.73;43.16;100000.66;5127430;27;20042;-79
2022/04/21 11:20:39;;;;;;;25.75;16.60;;;;;;;18.77;43.33;100012.66;5112599;27;20039;-80
2022/04/21 11:23:08;;;;;;;29.33;17.33;;;;;;;18.71;43.85;99997.53;5092158;28;20027;-81
2022/04/21 11:25:33;;;;;;;24.98;17.77;;;;;;;18.59;43.42;100004.00;5058669;28;20389;-82
2022/04/21 11:27:59;;;;;;;24.50;16.73;;;;;;;18.46;43.83;100014.03;5080102;28;20076;-79
2022/04/21 11:30:24;;;;;;;26.83;16.90;;;;;;;18.36;43.58;100001.31;5096550;28;20032;-80
2022/04/21 11:32:51;;;;;;;21.15;15.27;;;;;;;18.21;43.31;99998.06;5076076;28;20020;-74
2022/04/21 11:35:18;;;;;;;25.85;16.52;;;;;;;18.04;44.02;99995.38;5075978;28;20020;-75
2022/04/21 11:37:47;;;;;;;25.80;17.50;;;;;;;17.99;43.18;99996.19;5092943;28;20020;-76
2022/04/21 11:40:21;;;;;;;31.77;18.90;;;;;;;17.80;43.49;99994.53;5094081;28;20020;-77
2022/04/21 11:42:49;;;;;;;30.42;19.65;;;;;;;17.80;43.68;100001.09;5093861;28;20032;-83
2022/04/21 11:45:34;;;;;;;28.58;19.63;;;;;;;17.64;44.36;99996.25;5076528;28;20032;-83
2022/04/21 11:48:00;;;;;;;22.35;16.48;;;;;;;17.77;44.06;99986.97;5092415;28;20081;-77
2022/04/21 11:50:29;;;;;;;22.00;16.67;;;;;;;17.86;43.64;99998.16;5092737;28;20032;-84
2022/04/21 11:52:57;;;;;;;18.92;14.18;;;;;;;17.95;43.17;99995.72;5075508;28;20024;-81
2022/04/21 11:55:24;;;;;;;19.95;14.68;;;;;;;17.96;43.06;99994.38;5059650;28;20059;-83
2022/04/21 11:57:49;;;;;;;24.50;15.70;;;;;;;17.98;43.89;99985.19;5093563;28;20140;-81
2022/04/21 12:00:17;;;;;;;21.77;14.68;;;;;;;18.13;43.09;99994.22;5075735;28;20434;-81
2022/04/21 12:08:14;;;;;;;20.85;16.17;;;;;;;18.03;43.26;99987.25;5093358;28;20072;-76
2022/04/21 12:10:41;;;;;;;25.80;16.00;;;;;;;17.38;43.34;99990.13;5081870;28;20020;-76
2022/04/21 12:13:07;;;;;;;27.35;16.65;;;;;;;17.10;44.69;99993.19;5112649;28;20448;-77
2022/04/21 12:15:33;;;;;;;28.25;17.35;;;;;;;17.21;44.54;99984.50;5113921;28;20032;-77